Harrisonburg, Virginia
Current Conditions -  °F | °C
As of 7:15 PM on Wednesday 26 Nov 2014 (Local Time) from KVBW Reporting Station
Overcast Overcast  
Wind Chill: 33°   Ceiling: 200
Heat Index: 33°   Visibility: 3mi
Dew Point: 32°   Wind: 0mph
Humidity: 99%   Direction: NA
Pressure: 29.97"   Gusts: NA
Location:  38.45°N, 78.87°W
Report Text: KVBW 270015Z AUTO 00000KT 3SM BKN002 BKN034 OVC070 00/00 A2997 RMK AO2 T00030001
Loading
Personal Weather Stations






























Interactive Weather Map New forecast layout! Learn more

10-Day Weather Forecast

Advertisements
Track Severe Weather on mobile